sensor_id;sensor_type;location;lat;lon;timestamp;temperature;humidity
5631;DHT22;2837;50.990;7.124;2024-01-30T06:02:54;9.10;99.90
5631;DHT22;2837;50.990;7.124;2024-01-30T06:07:46;8.90;99.90
5631;DHT22;2837;50.990;7.124;2024-01-30T06:15:04;9.00;99.90
5631;DHT22;2837;50.990;7.124;2024-01-30T06:17:31;9.00;99.90
5631;DHT22;2837;50.990;7.124;2024-01-30T06:19:56;8.90;99.90
5631;DHT22;2837;50.990;7.124;2024-01-30T06:24:48;8.90;99.90
5631;DHT22;2837;50.990;7.124;2024-01-30T06:27:14;8.90;99.90
5631;DHT22;2837;50.990;7.124;2024-01-30T06:34:32;8.90;99.90
5631;DHT22;2837;50.990;7.124;2024-01-30T06:36:58;9.00;99.90
5631;DHT22;2837;50.990;7.124;2024-01-30T06:39:23;8.90;99.90
5631;DHT22;2837;50.990;7.124;2024-01-30T06:41:50;8.90;99.90
5631;DHT22;2837;50.990;7.124;2024-01-30T06:44:15;8.90;99.90
5631;DHT22;2837;50.990;7.124;2024-01-30T06:46:41;9.00;99.90
5631;DHT22;2837;50.990;7.124;2024-01-30T06:53:59;9.00;99.90
5631;DHT22;2837;50.990;7.124;2024-01-30T06:56:25;9.10;99.90
5631;DHT22;2837;50.990;7.124;2024-01-30T06:58:51;9.10;99.90
5631;DHT22;2837;50.990;7.124;2024-01-30T07:01:16;9.20;99.90
5631;DHT22;2837;50.990;7.124;2024-01-30T07:13:29;9.20;99.90
5631;DHT22;2837;50.990;7.124;2024-01-30T07:15:54;9.20;99.90
5631;DHT22;2837;50.990;7.124;2024-01-30T07:20:46;9.40;99.90
5631;DHT22;2837;50.990;7.124;2024-01-30T07:23:13;9.40;99.90
5631;DHT22;2837;50.990;7.124;2024-01-30T07:25:41;9.30;99.90
5631;DHT22;2837;50.990;7.124;2024-01-30T07:28:07;9.30;99.90
5631;DHT22;2837;50.990;7.124;2024-01-30T07:33:00;9.40;99.90
5631;DHT22;2837;50.990;7.124;2024-01-30T07:35:26;9.40;99.90
5631;DHT22;2837;50.990;7.124;2024-01-30T07:37:52;9.30;99.90
5631;DHT22;2837;50.990;7.124;2024-01-30T07:42:43;9.40;99.90
5631;DHT22;2837;50.990;7.124;2024-01-30T07:45:09;9.40;99.90
5631;DHT22;2837;50.990;7.124;2024-01-30T07:47:35;9.40;99.90
5631;DHT22;2837;50.990;7.124;2024-01-30T07:52:26;9.40;99.90
5631;DHT22;2837;50.990;7.124;2024-01-30T07:54:52;9.50;99.90
5631;DHT22;2837;50.990;7.124;2024-01-30T07:57:18;9.60;99.90
5631;DHT22;2837;50.990;7.124;2024-01-30T08:02:11;9.50;99.90
5631;DHT22;2837;50.990;7.124;2024-01-30T08:04:37;9.50;99.90
5631;DHT22;2837;50.990;7.124;2024-01-30T08:07:03;9.50;99.90
5631;DHT22;2837;50.990;7.124;2024-01-30T08:09:28;9.50;99.90
5631;DHT22;2837;50.990;7.124;2024-01-30T08:14:20;9.50;99.90
5631;DHT22;2837;50.990;7.124;2024-01-30T08:16:45;9.60;99.90
5631;DHT22;2837;50.990;7.124;2024-01-30T08:19:11;9.60;99.90
5631;DHT22;2837;50.990;7.124;2024-01-30T08:21:37;9.70;99.90
5631;DHT22;2837;50.990;7.124;2024-01-30T08:24:06;9.70;99.90
5631;DHT22;2837;50.990;7.124;2024-01-30T08:28:58;9.70;99.90
5631;DHT22;2837;50.990;7.124;2024-01-30T08:31:24;9.80;99.90
5631;DHT22;2837;50.990;7.124;2024-01-30T08:33:49;9.80;99.90
5631;DHT22;2837;50.990;7.124;2024-01-30T08:36:16;9.80;99.90
5631;DHT22;2837;50.990;7.124;2024-01-30T08:38:42;9.70;99.90
5631;DHT22;2837;50.990;7.124;2024-01-30T08:41:08;9.70;99.90
5631;DHT22;2837;50.990;7.124;2024-01-30T08:43:33;9.70;99.90
5631;DHT22;2837;50.990;7.124;2024-01-30T08:46:02;9.70;99.90
5631;DHT22;2837;50.990;7.124;2024-01-30T08:50:54;9.70;99.90
5631;DHT22;2837;50.990;7.124;2024-01-30T08:53:20;9.80;99.90
5631;DHT22;2837;50.990;7.124;2024-01-30T08:58:12;10.00;99.90
5631;DHT22;2837;50.990;7.124;2024-01-30T09:00:37;10.00;99.90
5631;DHT22;2837;50.990;7.124;2024-01-30T09:03:03;9.90;99.90
5631;DHT22;2837;50.990;7.124;2024-01-30T09:05:29;9.90;99.90
5631;DHT22;2837;50.990;7.124;2024-01-30T09:07:55;10.00;99.90
5631;DHT22;2837;50.990;7.124;2024-01-30T09:12:47;9.90;99.90
5631;DHT22;2837;50.990;7.124;2024-01-30T09:15:13;10.00;99.90
5631;DHT22;2837;50.990;7.124;2024-01-30T09:17:39;10.00;99.90
5631;DHT22;2837;50.990;7.124;2024-01-30T09:20:05;10.00;99.90
5631;DHT22;2837;50.990;7.124;2024-01-30T09:24:57;10.00;99.90
5631;DHT22;2837;50.990;7.124;2024-01-30T09:29:49;10.00;99.90
5631;DHT22;2837;50.990;7.124;2024-01-30T09:32:15;10.10;99.90
5631;DHT22;2837;50.990;7.124;2024-01-30T09:34:40;10.10;99.90
5631;DHT22;2837;50.990;7.124;2024-01-30T09:37:07;10.20;99.90
5631;DHT22;2837;50.990;7.124;2024-01-30T09:44:47;10.30;99.90
5631;DHT22;2837;50.990;7.124;2024-01-30T09:47:16;10.30;99.90
5631;DHT22;2837;50.990;7.124;2024-01-30T09:49:42;10.30;99.90
5631;DHT22;2837;50.990;7.124;2024-01-30T09:52:08;10.40;99.90
5631;DHT22;2837;50.990;7.124;2024-01-30T09:57:01;10.40;99.90
5631;DHT22;2837;50.990;7.124;2024-01-30T09:59:26;10.50;99.90
5631;DHT22;2837;50.990;7.124;2024-01-30T10:01:52;10.40;99.90
5631;DHT22;2837;50.990;7.124;2024-01-30T10:09:10;10.70;99.90
5631;DHT22;2837;50.990;7.124;2024-01-30T10:11:36;10.60;99.90
5631;DHT22;2837;50.990;7.124;2024-01-30T10:14:02;10.50;99.90
5631;DHT22;2837;50.990;7.124;2024-01-30T10:18:54;10.60;99.90
5631;DHT22;2837;50.990;7.124;2024-01-30T10:21:19;10.60;99.90
5631;DHT22;2837;50.990;7.124;2024-01-30T10:23:45;10.60;99.90
5631;DHT22;2837;50.990;7.124;2024-01-30T10:26:10;10.60;99.90
5631;DHT22;2837;50.990;7.124;2024-01-30T10:31:02;10.80;99.90
5631;DHT22;2837;50.990;7.124;2024-01-30T10:33:31;10.70;99.90
5631;DHT22;2837;50.990;7.124;2024-01-30T10:36:04;10.80;99.90
5631;DHT22;2837;50.990;7.124;2024-01-30T10:40:58;10.60;99.90
5631;DHT22;2837;50.990;7.124;2024-01-30T10:43:32;10.70;99.90
5631;DHT22;2837;50.990;7.124;2024-01-30T10:46:21;10.80;99.90
5631;DHT22;2837;50.990;7.124;2024-01-30T10:48:57;10.80;99.90
5631;DHT22;2837;50.990;7.124;2024-01-30T10:51:27;10.80;99.90
5631;DHT22;2837;50.990;7.124;2024-01-30T10:53:53;10.90;99.90
5631;DHT22;2837;50.990;7.124;2024-01-30T11:03:52;11.00;99.90
5631;DHT22;2837;50.990;7.124;2024-01-30T11:06:18;11.00;99.90
5631;DHT22;2837;50.990;7.124;2024-01-30T11:11:10;11.10;99.90
5631;DHT22;2837;50.990;7.124;2024-01-30T11:13:36;11.20;99.90
5631;DHT22;2837;50.990;7.124;2024-01-30T11:18:32;11.10;99.90
5631;DHT22;2837;50.990;7.124;2024-01-30T11:20:59;11.20;99.90
5631;DHT22;2837;50.990;7.124;2024-01-30T11:23:30;11.10;99.90
5631;DHT22;2837;50.990;7.124;2024-01-30T11:25:56;11.30;99.90
5631;DHT22;2837;50.990;7.124;2024-01-30T11:28:23;11.30;99.90
5631;DHT22;2837;50.990;7.124;2024-01-30T11:30:49;11.20;99.90
5631;DHT22;2837;50.990;7.124;2024-01-30T11:35:43;11.30;99.90
5631;DHT22;2837;50.990;7.124;2024-01-30T11:40:38;11.20;99.90
5631;DHT22;2837;50.990;7.124;2024-01-30T11:45:31;11.20;99.90
5631;DHT22;2837;50.990;7.124;2024-01-30T11:47:57;11.20;99.90
5631;DHT22;2837;50.990;7.124;2024-01-30T11:50:24;11.10;99.90
5631;DHT22;2837;50.990;7.124;2024-01-30T11:52:50;11.20;99.90
5631;DHT22;2837;50.990;7.124;2024-01-30T11:55:15;11.30;99.90
5631;DHT22;2837;50.990;7.124;2024-01-30T11:57:41;11.40;99.90
5631;DHT22;2837;50.990;7.124;2024-01-30T12:00:15;11.30;99.90
5631;DHT22;2837;50.990;7.124;2024-01-30T12:02:42;11.40;99.90
5631;DHT22;2837;50.990;7.124;2024-01-30T12:10:00;11.30;99.90
5631;DHT22;2837;50.990;7.124;2024-01-30T12:12:27;11.30;99.90
5631;DHT22;2837;50.990;7.124;2024-01-30T12:14:53;11.20;99.90
5631;DHT22;2837;50.990;7.124;2024-01-30T12:17:32;11.20;99.90
5631;DHT22;2837;50.990;7.124;2024-01-30T12:20:13;11.20;99.90
5631;DHT22;2837;50.990;7.124;2024-01-30T12:22:41;11.20;99.90
5631;DHT22;2837;50.990;7.124;2024-01-30T12:25:17;11.20;99.90
5631;DHT22;2837;50.990;7.124;2024-01-30T12:27:45;11.20;99.90
5631;DHT22;2837;50.990;7.124;2024-01-30T12:30:13;11.20;99.90
5631;DHT22;2837;50.990;7.124;2024-01-30T12:37:43;11.20;99.90
5631;DHT22;2837;50.990;7.124;2024-01-30T12:40:10;11.30;99.90
5631;DHT22;2837;50.990;7.124;2024-01-30T12:45:03;11.40;99.90
5631;DHT22;2837;50.990;7.124;2024-01-30T12:47:29;11.50;99.90
5631;DHT22;2837;50.990;7.124;2024-01-30T12:49:55;11.40;99.90
5631;DHT22;2837;50.990;7.124;2024-01-30T12:52:21;11.40;99.90
5631;DHT22;2837;50.990;7.124;2024-01-30T12:54:51;11.30;99.90
5631;DHT22;2837;50.990;7.124;2024-01-30T12:57:17;11.30;99.90
5631;DHT22;2837;50.990;7.124;2024-01-30T12:59:43;11.30;99.90
5631;DHT22;2837;50.990;7.124;2024-01-30T13:02:09;11.40;99.90
5631;DHT22;2837;50.990;7.124;2024-01-30T13:04:35;11.40;99.90
5631;DHT22;2837;50.990;7.124;2024-01-30T13:07:01;11.40;99.90
5631;DHT22;2837;50.990;7.124;2024-01-30T13:09:27;11.40;99.90
5631;DHT22;2837;50.990;7.124;2024-01-30T13:11:53;11.40;99.90
5631;DHT22;2837;50.990;7.124;2024-01-30T13:14:19;11.40;99.90
5631;DHT22;2837;50.990;7.124;2024-01-30T13:16:45;11.40;99.90
5631;DHT22;2837;50.990;7.124;2024-01-30T13:19:10;11.40;99.90
5631;DHT22;2837;50.990;7.124;2024-01-30T13:21:36;11.40;99.90
5631;DHT22;2837;50.990;7.124;2024-01-30T13:24:03;11.40;99.90
5631;DHT22;2837;50.990;7.124;2024-01-30T13:26:28;11.40;99.90
5631;DHT22;2837;50.990;7.124;2024-01-30T13:28:56;11.40;99.90
5631;DHT22;2837;50.990;7.124;2024-01-30T13:36:14;11.30;99.90
5631;DHT22;2837;50.990;7.124;2024-01-30T13:38:40;11.30;99.90
5631;DHT22;2837;50.990;7.124;2024-01-30T13:41:06;11.40;99.90
5631;DHT22;2837;50.990;7.124;2024-01-30T13:43:31;11.40;99.90
5631;DHT22;2837;50.990;7.124;2024-01-30T13:45:57;11.40;99.90
5631;DHT22;2837;50.990;7.124;2024-01-30T13:48:22;11.40;99.90
5631;DHT22;2837;50.990;7.124;2024-01-30T13:50:48;11.40;99.90
5631;DHT22;2837;50.990;7.124;2024-01-30T13:53:14;11.40;99.90
5631;DHT22;2837;50.990;7.124;2024-01-30T13:55:39;11.40;99.90
5631;DHT22;2837;50.990;7.124;2024-01-30T13:58:06;11.40;99.90
5631;DHT22;2837;50.990;7.124;2024-01-30T14:00:32;11.40;99.90
5631;DHT22;2837;50.990;7.124;2024-01-30T14:02:57;11.40;99.90
5631;DHT22;2837;50.990;7.124;2024-01-30T14:05:24;11.50;99.90
5631;DHT22;2837;50.990;7.124;2024-01-30T14:07:51;11.60;99.90
5631;DHT22;2837;50.990;7.124;2024-01-30T14:12:43;11.50;99.90
5631;DHT22;2837;50.990;7.124;2024-01-30T14:15:10;11.50;99.90
5631;DHT22;2837;50.990;7.124;2024-01-30T14:17:36;11.60;99.90
5631;DHT22;2837;50.990;7.124;2024-01-30T14:22:33;11.60;99.90
5631;DHT22;2837;50.990;7.124;2024-01-30T14:24:59;11.60;99.90
5631;DHT22;2837;50.990;7.124;2024-01-30T14:27:25;11.60;99.90
5631;DHT22;2837;50.990;7.124;2024-01-30T14:29:50;11.60;99.90
5631;DHT22;2837;50.990;7.124;2024-01-30T14:32:16;11.50;99.90
5631;DHT22;2837;50.990;7.124;2024-01-30T14:34:41;11.40;99.90
5631;DHT22;2837;50.990;7.124;2024-01-30T14:37:07;11.50;99.90
5631;DHT22;2837;50.990;7.124;2024-01-30T14:39:33;11.50;99.90
5631;DHT22;2837;50.990;7.124;2024-01-30T14:41:59;11.60;99.90
5631;DHT22;2837;50.990;7.124;2024-01-30T14:44:25;11.60;99.90
5631;DHT22;2837;50.990;7.124;2024-01-30T14:46:50;11.60;99.90
5631;DHT22;2837;50.990;7.124;2024-01-30T14:49:16;11.60;99.90
5631;DHT22;2837;50.990;7.124;2024-01-30T14:51:42;11.70;99.90
5631;DHT22;2837;50.990;7.124;2024-01-30T14:54:08;11.70;99.90
5631;DHT22;2837;50.990;7.124;2024-01-30T14:56:33;11.70;99.90
5631;DHT22;2837;50.990;7.124;2024-01-30T14:59:00;11.70;99.90
5631;DHT22;2837;50.990;7.124;2024-01-30T15:01:25;11.70;99.90
5631;DHT22;2837;50.990;7.124;2024-01-30T15:06:17;11.70;99.90
5631;DHT22;2837;50.990;7.124;2024-01-30T15:08:43;11.70;99.90
5631;DHT22;2837;50.990;7.124;2024-01-30T15:11:09;11.70;99.90
5631;DHT22;2837;50.990;7.124;2024-01-30T15:13:34;11.70;99.90
5631;DHT22;2837;50.990;7.124;2024-01-30T15:16:00;11.80;99.90
5631;DHT22;2837;50.990;7.124;2024-01-30T15:18:28;11.80;99.90
5631;DHT22;2837;50.990;7.124;2024-01-30T15:20:54;11.70;99.90
5631;DHT22;2837;50.990;7.124;2024-01-30T15:23:19;11.70;99.90
5631;DHT22;2837;50.990;7.124;2024-01-30T15:25:45;11.70;99.90
5631;DHT22;2837;50.990;7.124;2024-01-30T15:28:10;11.70;99.90
5631;DHT22;2837;50.990;7.124;2024-01-30T15:30:36;11.70;99.90
5631;DHT22;2837;50.990;7.124;2024-01-30T15:33:01;11.70;99.90
5631;DHT22;2837;50.990;7.124;2024-01-30T15:35:27;11.60;99.90
5631;DHT22;2837;50.990;7.124;2024-01-30T15:37:53;11.50;99.90
5631;DHT22;2837;50.990;7.124;2024-01-30T15:40:18;11.60;99.90
5631;DHT22;2837;50.990;7.124;2024-01-30T15:42:44;11.50;99.90
5631;DHT22;2837;50.990;7.124;2024-01-30T15:45:10;11.50;99.90
5631;DHT22;2837;50.990;7.124;2024-01-30T15:47:35;11.60;99.90
5631;DHT22;2837;50.990;7.124;2024-01-30T15:50:02;11.60;99.90
5631;DHT22;2837;50.990;7.124;2024-01-30T15:52:29;11.70;99.90
5631;DHT22;2837;50.990;7.124;2024-01-30T15:57:20;11.80;99.90
5631;DHT22;2837;50.990;7.124;2024-01-30T15:59:46;11.70;99.90
5631;DHT22;2837;50.990;7.124;2024-01-30T16:04:39;11.70;99.90
5631;DHT22;2837;50.990;7.124;2024-01-30T16:07:05;11.80;99.90
5631;DHT22;2837;50.990;7.124;2024-01-30T16:09:30;11.80;99.90
5631;DHT22;2837;50.990;7.124;2024-01-30T16:11:57;11.80;99.90
5631;DHT22;2837;50.990;7.124;2024-01-30T16:14:23;11.70;99.90
5631;DHT22;2837;50.990;7.124;2024-01-30T16:16:48;11.70;99.90
5631;DHT22;2837;50.990;7.124;2024-01-30T16:19:14;11.70;99.90
5631;DHT22;2837;50.990;7.124;2024-01-30T16:24:09;11.70;99.90
5631;DHT22;2837;50.990;7.124;2024-01-30T16:26:34;11.70;99.90
5631;DHT22;2837;50.990;7.124;2024-01-30T16:29:00;11.60;99.90
5631;DHT22;2837;50.990;7.124;2024-01-30T16:31:25;11.60;99.90
5631;DHT22;2837;50.990;7.124;2024-01-30T16:33:51;11.70;99.90
5631;DHT22;2837;50.990;7.124;2024-01-30T16:36:17;11.60;99.90
5631;DHT22;2837;50.990;7.124;2024-01-30T16:38:42;11.50;99.90
5631;DHT22;2837;50.990;7.124;2024-01-30T16:41:08;11.40;99.90
5631;DHT22;2837;50.990;7.124;2024-01-30T16:43:33;11.50;99.90
5631;DHT22;2837;50.990;7.124;2024-01-30T16:48:26;11.40;99.90
5631;DHT22;2837;50.990;7.124;2024-01-30T16:50:52;11.40;99.90
5631;DHT22;2837;50.990;7.124;2024-01-30T16:53:18;11.30;99.90
5631;DHT22;2837;50.990;7.124;2024-01-30T16:55:43;11.30;99.90
5631;DHT22;2837;50.990;7.124;2024-01-30T16:58:09;11.30;99.90
5631;DHT22;2837;50.990;7.124;2024-01-30T17:00:37;11.30;99.90
5631;DHT22;2837;50.990;7.124;2024-01-30T17:03:02;11.20;99.90
5631;DHT22;2837;50.990;7.124;2024-01-30T17:07:54;11.30;99.90
5631;DHT22;2837;50.990;7.124;2024-01-30T17:10:20;11.20;99.90
5631;DHT22;2837;50.990;7.124;2024-01-30T17:12:46;11.20;99.90
5631;DHT22;2837;50.990;7.124;2024-01-30T17:15:12;11.20;99.90
5631;DHT22;2837;50.990;7.124;2024-01-30T17:20:04;11.20;99.90
5631;DHT22;2837;50.990;7.124;2024-01-30T17:22:29;11.20;99.90
5631;DHT22;2837;50.990;7.124;2024-01-30T17:27:22;11.10;99.90
5631;DHT22;2837;50.990;7.124;2024-01-30T17:29:48;11.20;99.90
5631;DHT22;2837;50.990;7.124;2024-01-30T17:34:39;11.10;99.90
5631;DHT22;2837;50.990;7.124;2024-01-30T17:39:31;11.10;99.90
5631;DHT22;2837;50.990;7.124;2024-01-30T17:41:56;11.10;99.90
5631;DHT22;2837;50.990;7.124;2024-01-30T17:44:22;11.10;99.90
5631;DHT22;2837;50.990;7.124;2024-01-30T17:46:49;11.10;99.90
5631;DHT22;2837;50.990;7.124;2024-01-30T17:49:15;11.10;99.90
5631;DHT22;2837;50.990;7.124;2024-01-30T17:51:41;11.10;99.90
5631;DHT22;2837;50.990;7.124;2024-01-30T17:54:07;11.10;99.90
5631;DHT22;2837;50.990;7.124;2024-01-30T17:56:32;11.00;99.90
5631;DHT22;2837;50.990;7.124;2024-01-30T17:58:58;11.00;99.90
5631;DHT22;2837;50.990;7.124;2024-01-30T18:01:23;11.00;99.90
5631;DHT22;2837;50.990;7.124;2024-01-30T18:03:49;11.00;99.90
5631;DHT22;2837;50.990;7.124;2024-01-30T18:06:17;10.90;99.90
5631;DHT22;2837;50.990;7.124;2024-01-30T18:08:43;10.90;99.90
5631;DHT22;2837;50.990;7.124;2024-01-30T18:11:09;10.90;99.90
5631;DHT22;2837;50.990;7.124;2024-01-30T18:13:35;10.90;99.90
5631;DHT22;2837;50.990;7.124;2024-01-30T18:18:26;10.90;99.90
5631;DHT22;2837;50.990;7.124;2024-01-30T18:23:18;10.90;99.90
5631;DHT22;2837;50.990;7.124;2024-01-30T18:25:46;10.90;99.90
5631;DHT22;2837;50.990;7.124;2024-01-30T18:35:30;11.00;99.90
5631;DHT22;2837;50.990;7.124;2024-01-30T18:40:22;10.90;99.90
5631;DHT22;2837;50.990;7.124;2024-01-30T18:59:50;10.90;99.90
5631;DHT22;2837;50.990;7.124;2024-01-30T19:04:42;10.80;99.90
5631;DHT22;2837;50.990;7.124;2024-01-30T19:07:07;10.80;99.90
5631;DHT22;2837;50.990;7.124;2024-01-30T19:16:52;10.80;99.90
5631;DHT22;2837;50.990;7.124;2024-01-30T19:31:31;10.60;99.90
5631;DHT22;2837;50.990;7.124;2024-01-30T19:51:00;10.60;99.90
5631;DHT22;2837;50.990;7.124;2024-01-30T19:58:17;10.60;99.90
5631;DHT22;2837;50.990;7.124;2024-01-30T20:12:53;10.50;99.90
5631;DHT22;2837;50.990;7.124;2024-01-30T20:15:19;10.50;99.90
5631;DHT22;2837;50.990;7.124;2024-01-30T20:20:11;10.60;99.90
5631;DHT22;2837;50.990;7.124;2024-01-30T20:22:37;10.50;99.90
5631;DHT22;2837;50.990;7.124;2024-01-30T20:25:03;10.50;99.90
5631;DHT22;2837;50.990;7.124;2024-01-30T20:42:06;10.40;99.90
5631;DHT22;2837;50.990;7.124;2024-01-30T20:49:24;10.40;99.90
5631;DHT22;2837;50.990;7.124;2024-01-30T20:54:16;10.40;99.90
5631;DHT22;2837;50.990;7.124;2024-01-30T20:59:08;10.40;99.90
5631;DHT22;2837;50.990;7.124;2024-01-30T21:08:51;10.40;99.90
5631;DHT22;2837;50.990;7.124;2024-01-30T21:11:17;10.30;99.90
5631;DHT22;2837;50.990;7.124;2024-01-30T21:21:08;10.20;99.90
5631;DHT22;2837;50.990;7.124;2024-01-30T21:23:34;10.20;99.90
5631;DHT22;2837;50.990;7.124;2024-01-30T21:25:59;10.30;99.90
5631;DHT22;2837;50.990;7.124;2024-01-30T21:40:34;10.10;99.90
5631;DHT22;2837;50.990;7.124;2024-01-30T21:43:00;10.10;99.90
5631;DHT22;2837;50.990;7.124;2024-01-30T21:45:26;10.10;99.90
5631;DHT22;2837;50.990;7.124;2024-01-30T21:50:20;10.10;99.90
